Skip Navigation Links Skip Navigation Links

Current Weather

Boscombe Down, United Kingdom

For information only: do not use for flight planning or navigation.
Latest weather
Observation time Tuesday, September 28, 2021 10:50 AM BST
Local time Tuesday, September 28, 2021 11:14 AM BST
Flight conditions Visual Meteorological Conditions
Winds
Wind direction South (190°)
Wind speed 16 mph
Visibility 6.2 mi.
Sky condition
Ceiling 22,000 ft. broken clouds
Cloud layer few clouds 1,800 ft.
Cloud layer scattered clouds 9,000 ft.
Cloud layer broken clouds 22,000 ft.
Temperature 61°F
Dewpoint 54°F
Altimeter 30.00 in.Hg
Derived measurements
Relative humidity 77%
Density altitude 222 ft.
Remarks
No significant changes expected in the next two hours.
METAR EGDM 280950Z 19014KT 9999 FEW018 SCT090 BKN220 16/12 Q1016 NOSIG RMK BLU BLU

Settings

Location code

InnerDrive.Weather 4.0.6770.0 Release CLR 4.0.30319.42000
Copyright ©2018 Inner Drive Technology. All rights reserved. Portions Copyright ©1986-2018 David Braverman.

Find weather

Site navigation


Skip Navigation Links

Place info

Page info

PayPal - The safer, easier way to pay online!

Return home.

Copyright ©2021 Inner Drive Technology. Purveyors of fine, hand-crafted computer software. Page printed 2021-09-28T10:14:20 UTC.